Aviation Digital Data Service (ADDS)

Output produced by TAFs form (1731 UTC 21 September 2017)
found at http://www.aviationweather.gov/adds/tafs/
 
KGFL 211401Z 2114/2212 06009KT P6SM BKN016 
     FM211500 04007KT P6SM SCT040 BKN250 
     FM212300 VRB03KT P6SM SCT250 
     FM220600 00000KT 3SM BR SCT002 SCT250